Time;durP1;ratioP1;P1;durP2;ratioP2;P2;SDS_P1;SDS_P2;PMS_P1;PMS_P2;Temp;Humidity;BMP_temperature;BMP_pressure;BME280_temperature;BME280_humidity;BME280_pressure;Samples;Min_cycle;Max_cycle;Signal;HPM_P1;HPM_P2
2021/08/25 00:02:09;;;;;;;6.35;3.97;;;12.30;99.90;;;;;;5083306;28;20016;-45
2021/08/25 00:04:35;;;;;;;7.15;3.45;;;12.30;99.90;;;;;;5091532;28;20453;-46
2021/08/25 00:07:00;;;;;;;10.15;4.28;;;12.30;99.90;;;;;;5090659;28;20012;-45
2021/08/25 00:09:26;;;;;;;6.30;3.75;;;12.20;99.90;;;;;;5089936;28;20497;-46
2021/08/25 00:11:51;;;;;;;6.32;3.85;;;12.20;99.90;;;;;;5091201;28;20031;-45
2021/08/25 00:14:17;;;;;;;7.43;4.35;;;12.10;99.90;;;;;;5091174;28;20090;-45
2021/08/25 00:16:42;;;;;;;5.88;3.80;;;12.10;99.90;;;;;;5090318;28;20036;-45
2021/08/25 00:19:08;;;;;;;6.60;3.88;;;12.10;99.90;;;;;;5091180;28;20036;-46
2021/08/25 00:21:33;;;;;;;7.43;3.70;;;12.10;99.90;;;;;;5091133;28;20062;-45
2021/08/25 00:23:59;;;;;;;7.60;4.00;;;12.10;99.90;;;;;;5091222;28;20039;-46
2021/08/25 00:26:24;;;;;;;8.65;4.88;;;12.10;99.90;;;;;;5086400;28;20401;-46
2021/08/25 00:28:50;;;;;;;6.57;3.42;;;12.10;99.90;;;;;;5059388;28;20021;-46
2021/08/25 00:31:15;;;;;;;6.32;4.15;;;12.20;99.90;;;;;;5071730;28;20375;-46
2021/08/25 00:33:40;;;;;;;6.32;3.92;;;12.10;99.90;;;;;;5061781;28;20028;-45
2021/08/25 00:36:06;;;;;;;6.70;4.20;;;12.10;99.90;;;;;;5060562;28;20070;-46
2021/08/25 00:38:32;;;;;;;5.90;3.85;;;12.10;99.90;;;;;;5063572;28;20021;-46
2021/08/25 00:40:58;;;;;;;6.30;3.78;;;11.90;99.90;;;;;;5058656;28;20021;-45
2021/08/25 00:43:24;;;;;;;8.02;4.00;;;11.90;99.90;;;;;;5059854;28;20057;-45
2021/08/25 00:45:49;;;;;;;6.72;4.13;;;11.80;99.90;;;;;;5060538;28;20076;-45
2021/08/25 00:48:18;;;;;;;7.93;4.15;;;11.70;99.90;;;;;;5067270;28;20025;-45
2021/08/25 00:50:50;;;;;;;6.43;3.67;;;11.70;99.90;;;;;;5070381;28;20029;-45
2021/08/25 00:53:22;;;;;;;8.32;4.13;;;11.60;99.90;;;;;;5070422;28;20024;-45
2021/08/25 00:55:47;;;;;;;9.05;3.95;;;11.60;99.90;;;;;;5070304;28;20473;-45
2021/08/25 00:58:14;;;;;;;7.85;4.10;;;11.50;99.90;;;;;;5069641;28;20032;-46
2021/08/25 01:00:47;;;;;;;6.63;4.38;;;11.60;99.90;;;;;;5074908;28;20102;-46
2021/08/25 01:03:19;;;;;;;7.63;4.03;;;11.50;99.90;;;;;;5049992;28;20021;-47
2021/08/25 01:05:47;;;;;;;5.75;3.28;;;11.50;99.90;;;;;;5050220;28;20029;-45
2021/08/25 01:08:14;;;;;;;7.25;3.97;;;11.50;99.90;;;;;;5049779;28;20080;-46
2021/08/25 01:10:40;;;;;;;6.75;3.97;;;11.40;99.90;;;;;;5050441;28;20029;-45
2021/08/25 01:13:10;;;;;;;6.13;3.97;;;11.40;99.90;;;;;;5050343;28;20517;-45
2021/08/25 01:15:41;;;;;;;9.90;4.18;;;11.40;99.90;;;;;;5050039;28;20453;-45
2021/08/25 01:18:11;;;;;;;5.55;3.88;;;11.30;99.90;;;;;;5049703;28;20029;-45
2021/08/25 01:20:36;;;;;;;7.90;4.45;;;11.30;99.90;;;;;;5051320;28;20470;-45
2021/08/25 01:23:02;;;;;;;7.50;3.97;;;11.30;99.90;;;;;;5059265;28;20036;-45
2021/08/25 01:25:33;;;;;;;6.22;3.90;;;11.30;99.90;;;;;;5058586;28;20157;-45
2021/08/25 01:28:02;;;;;;;6.75;3.28;;;11.30;99.90;;;;;;5056552;28;20035;-45
2021/08/25 01:30:31;;;;;;;6.15;3.88;;;11.30;99.90;;;;;;5057579;28;20033;-47
2021/08/25 01:33:00;;;;;;;8.07;3.78;;;11.20;99.90;;;;;;5061279;28;20135;-46
2021/08/25 01:35:41;;;;;;;5.50;3.85;;;11.10;99.90;;;;;;5057474;28;20021;-46
2021/08/25 01:38:07;;;;;;;;;;;11.10;99.90;;;;;;5058172;28;20114;-47
2021/08/25 01:40:34;;;;;;;6.68;4.38;;;11.20;99.90;;;;;;5058217;28;20315;-45
2021/08/25 01:43:00;;;;;;;6.25;4.00;;;11.20;99.90;;;;;;5062510;28;20055;-47
2021/08/25 01:45:26;;;;;;;7.25;3.97;;;11.10;99.90;;;;;;5069059;28;20033;-46
2021/08/25 01:47:52;;;;;;;6.10;3.60;;;11.10;99.90;;;;;;5068682;28;20024;-46
2021/08/25 01:50:17;;;;;;;6.32;4.18;;;11.10;99.90;;;;;;5069271;28;20418;-46
2021/08/25 01:52:43;;;;;;;7.20;3.80;;;11.00;99.90;;;;;;5069001;28;20090;-46
2021/08/25 01:55:08;;;;;;;9.35;4.53;;;11.00;99.90;;;;;;5067733;28;20032;-46
2021/08/25 01:57:34;;;;;;;4.85;3.30;;;11.00;99.90;;;;;;5068568;28;20032;-46
2021/08/25 01:59:59;;;;;;;5.85;3.60;;;11.00;99.90;;;;;;5074378;28;20036;-46
2021/08/25 02:02:25;;;;;;;7.65;3.80;;;10.90;99.90;;;;;;5082255;28;20027;-46
2021/08/25 02:04:50;;;;;;;6.65;4.15;;;10.90;99.90;;;;;;5089446;28;20047;-46
2021/08/25 02:07:17;;;;;;;6.90;3.78;;;10.90;99.90;;;;;;5088597;28;20542;-46
2021/08/25 02:09:43;;;;;;;6.60;4.10;;;10.90;99.90;;;;;;5087857;28;20020;-49
2021/08/25 02:12:09;;;;;;;7.53;4.32;;;10.90;99.90;;;;;;5089167;28;20107;-46
2021/08/25 02:14:34;;;;;;;6.75;4.35;;;10.90;99.90;;;;;;5088797;28;20042;-47
2021/08/25 02:17:00;;;;;;;7.65;3.88;;;11.00;99.90;;;;;;5088502;28;20027;-46
2021/08/25 02:19:25;;;;;;;6.38;4.15;;;11.00;99.90;;;;;;5088930;28;20032;-46
2021/08/25 02:21:51;;;;;;;9.48;3.88;;;11.00;99.90;;;;;;5088864;28;20519;-47
2021/08/25 02:24:16;;;;;;;9.73;4.72;;;11.00;99.90;;;;;;5088799;28;20043;-47
2021/08/25 02:26:42;;;;;;;7.78;3.90;;;11.10;99.90;;;;;;5088235;28;20433;-47
2021/08/25 02:29:08;;;;;;;6.18;3.67;;;11.00;99.90;;;;;;5082483;28;20074;-46
2021/08/25 02:31:34;;;;;;;7.07;4.07;;;11.00;99.90;;;;;;5078932;28;20019;-45
2021/08/25 02:34:00;;;;;;;6.55;3.63;;;10.90;99.90;;;;;;5087470;28;20020;-46
2021/08/25 02:36:25;;;;;;;9.25;3.90;;;10.80;99.90;;;;;;5088025;28;20406;-46
2021/08/25 02:38:51;;;;;;;7.53;3.88;;;10.80;99.90;;;;;;5087367;28;20020;-46
2021/08/25 02:41:18;;;;;;;6.03;3.78;;;10.80;99.90;;;;;;5088724;28;20381;-45
2021/08/25 02:43:44;;;;;;;9.07;4.38;;;10.80;99.90;;;;;;5088698;28;20016;-46
2021/08/25 02:46:10;;;;;;;6.85;4.10;;;10.80;99.90;;;;;;5088330;28;20024;-46
2021/08/25 02:48:36;;;;;;;8.90;4.47;;;10.80;99.90;;;;;;5089003;28;20035;-46
2021/08/25 02:51:02;;;;;;;6.00;3.90;;;10.90;99.90;;;;;;5070736;28;20036;-46
2021/08/25 02:53:28;;;;;;;7.57;4.32;;;10.80;99.90;;;;;;5088760;28;20027;-45
2021/08/25 02:55:53;;;;;;;10.35;5.20;;;10.80;99.90;;;;;;5088716;28;20389;-46
2021/08/25 02:58:19;;;;;;;7.53;4.05;;;10.80;99.90;;;;;;5086637;28;20039;-46
2021/08/25 03:00:44;;;;;;;9.23;4.25;;;10.80;99.90;;;;;;5076371;28;20394;-46
2021/08/25 03:03:10;;;;;;;6.63;4.45;;;10.80;99.90;;;;;;5086986;28;20136;-45
2021/08/25 03:05:35;;;;;;;6.63;3.92;;;10.80;99.90;;;;;;5088286;28;20024;-46
2021/08/25 03:08:01;;;;;;;8.05;4.20;;;10.80;99.90;;;;;;5087699;28;20025;-46
2021/08/25 03:10:26;;;;;;;8.90;4.53;;;10.80;99.90;;;;;;5086941;28;20239;-46
2021/08/25 03:12:52;;;;;;;6.72;4.03;;;10.80;99.90;;;;;;5088123;28;20418;-45
2021/08/25 03:15:17;;;;;;;5.65;3.53;;;10.60;99.90;;;;;;5088074;28;20111;-46
2021/08/25 03:17:43;;;;;;;7.35;3.90;;;10.60;99.90;;;;;;5086364;28;20020;-45
2021/08/25 03:20:11;;;;;;;6.72;4.10;;;10.60;99.90;;;;;;5088184;28;20035;-45
2021/08/25 03:22:37;;;;;;;5.00;3.40;;;10.50;99.90;;;;;;5088307;28;20497;-46
2021/08/25 03:25:05;;;;;;;6.40;3.53;;;10.50;99.90;;;;;;5089990;28;20422;-46
2021/08/25 03:27:31;;;;;;;11.00;4.30;;;10.40;99.90;;;;;;5091512;28;20024;-49
2021/08/25 03:29:56;;;;;;;7.75;4.03;;;10.40;99.90;;;;;;5085684;28;20095;-46
2021/08/25 03:32:22;;;;;;;6.40;3.65;;;10.40;99.90;;;;;;5085680;28;20051;-49
2021/08/25 03:34:47;;;;;;;5.57;3.33;;;10.30;99.90;;;;;;5091750;28;20134;-48
2021/08/25 03:37:13;;;;;;;7.25;4.15;;;10.30;99.90;;;;;;5091311;28;20103;-45
2021/08/25 03:39:38;;;;;;;5.97;3.47;;;10.30;99.90;;;;;;5091864;28;20058;-46
2021/08/25 03:42:04;;;;;;;6.50;3.75;;;10.30;99.90;;;;;;5091950;28;20028;-45
2021/08/25 03:44:30;;;;;;;6.07;4.00;;;10.20;99.90;;;;;;5091745;28;20031;-45
2021/08/25 03:46:55;;;;;;;5.72;3.78;;;10.20;99.90;;;;;;5090088;28;20438;-44
2021/08/25 03:49:21;;;;;;;9.45;4.50;;;10.20;99.90;;;;;;5092011;28;20108;-45
2021/08/25 03:51:46;;;;;;;7.93;4.03;;;10.20;99.90;;;;;;5091966;28;20119;-45
2021/08/25 03:54:12;;;;;;;6.50;3.95;;;10.20;99.90;;;;;;5090657;28;20106;-45
2021/08/25 03:56:38;;;;;;;5.50;4.22;;;10.20;99.90;;;;;;5091006;28;20024;-45
2021/08/25 03:59:03;;;;;;;10.82;3.83;;;10.20;99.90;;;;;;5087268;28;20019;-45
2021/08/25 04:01:29;;;;;;;6.28;3.90;;;10.20;99.90;;;;;;5081744;28;20091;-47
2021/08/25 04:03:55;;;;;;;7.47;4.15;;;10.10;99.90;;;;;;5062764;28;20517;-48
2021/08/25 04:06:20;;;;;;;6.25;4.22;;;10.10;99.90;;;;;;5050612;28;20052;-46
2021/08/25 04:08:46;;;;;;;5.93;3.97;;;10.20;99.90;;;;;;5049466;28;20104;-48
2021/08/25 04:11:17;;;;;;;10.02;3.80;;;10.20;99.90;;;;;;5049640;28;20079;-45
2021/08/25 04:13:43;;;;;;;6.78;4.38;;;10.20;99.90;;;;;;5049814;28;20045;-47
2021/08/25 04:16:08;;;;;;;8.32;4.10;;;10.20;99.90;;;;;;5050327;28;20437;-49
2021/08/25 04:18:34;;;;;;;8.75;4.32;;;10.20;99.90;;;;;;5048938;28;20029;-46
2021/08/25 04:20:59;;;;;;;6.65;3.70;;;10.20;99.90;;;;;;5050993;28;20013;-46
2021/08/25 04:23:25;;;;;;;7.75;3.83;;;10.20;99.90;;;;;;5050747;28;20474;-45
2021/08/25 04:25:50;;;;;;;6.15;3.92;;;10.20;99.90;;;;;;5050735;28;20108;-45
2021/08/25 04:28:16;;;;;;;5.75;3.90;;;10.20;99.90;;;;;;5050320;28;20041;-45
2021/08/25 04:30:41;;;;;;;8.50;4.47;;;10.30;99.90;;;;;;5076772;28;20496;-44
2021/08/25 04:33:07;;;;;;;7.35;4.65;;;10.30;99.90;;;;;;5070799;28;20033;-45
2021/08/25 04:35:32;;;;;;;5.68;3.90;;;10.30;99.90;;;;;;5070340;28;20025;-44
2021/08/25 04:37:58;;;;;;;6.15;4.05;;;10.40;99.90;;;;;;5069692;28;20024;-45
2021/08/25 04:40:23;;;;;;;9.15;3.67;;;10.40;99.90;;;;;;5064734;28;20104;-45
2021/08/25 04:42:49;;;;;;;9.25;4.78;;;10.50;99.90;;;;;;5061886;28;20021;-45
2021/08/25 04:45:14;;;;;;;8.00;5.00;;;10.50;99.90;;;;;;5058742;28;20056;-46
2021/08/25 04:47:40;;;;;;;7.88;4.97;;;10.60;99.90;;;;;;5052802;28;20094;-46
2021/08/25 04:50:06;;;;;;;7.63;4.82;;;10.70;99.90;;;;;;5059752;28;20071;-45
2021/08/25 04:52:31;;;;;;;7.30;4.75;;;10.80;99.90;;;;;;5060679;28;20217;-46
2021/08/25 04:54:57;;;;;;;11.63;4.82;;;10.80;99.90;;;;;;5057816;28;20034;-47
2021/08/25 04:57:22;;;;;;;8.90;4.93;;;10.90;99.90;;;;;;5055101;28;20017;-46
2021/08/25 04:59:48;;;;;;;7.60;4.85;;;11.00;99.90;;;;;;5064223;28;20025;-46
2021/08/25 05:02:13;;;;;;;7.72;4.75;;;11.00;99.90;;;;;;5075534;28;20078;-46
2021/08/25 05:04:39;;;;;;;7.85;5.00;;;11.10;99.90;;;;;;5058539;28;20025;-46
2021/08/25 05:07:04;;;;;;;8.75;4.65;;;11.20;99.90;;;;;;5059494;28;20028;-46
2021/08/25 05:09:30;;;;;;;9.82;5.18;;;11.20;99.90;;;;;;5066373;28;20040;-46
2021/08/25 05:11:56;;;;;;;6.95;4.38;;;11.30;99.90;;;;;;5062383;28;20029;-46
2021/08/25 05:14:22;;;;;;;7.25;4.25;;;11.40;99.90;;;;;;5049726;28;20063;-46
2021/08/25 05:16:47;;;;;;;7.82;4.18;;;11.40;99.90;;;;;;5055947;28;20064;-46
2021/08/25 05:19:13;;;;;;;8.20;4.60;;;11.50;99.90;;;;;;5059035;28;20398;-46
2021/08/25 05:21:38;;;;;;;8.68;4.65;;;11.60;99.90;;;;;;5081316;28;20036;-46
2021/08/25 05:24:04;;;;;;;8.57;5.40;;;11.60;99.90;;;;;;5070858;28;20033;-46
2021/08/25 05:26:29;;;;;;;9.05;5.50;;;11.70;99.90;;;;;;5062150;28;20228;-46
2021/08/25 05:28:58;;;;;;;7.30;4.53;;;11.80;99.90;;;;;;5064766;28;20334;-47
2021/08/25 05:31:24;;;;;;;12.35;4.63;;;11.90;99.90;;;;;;5063296;28;20058;-46
2021/08/25 05:33:50;;;;;;;8.05;5.20;;;11.90;99.90;;;;;;5077338;28;20214;-46
2021/08/25 05:36:15;;;;;;;8.55;5.22;;;12.00;99.90;;;;;;5048260;28;20041;-46
2021/08/25 05:38:41;;;;;;;7.93;5.13;;;12.10;99.90;;;;;;5059322;28;20052;-46
2021/08/25 05:41:06;;;;;;;11.55;5.55;;;12.10;99.90;;;;;;5068817;28;20055;-46
2021/08/25 05:43:32;;;;;;;12.73;6.00;;;12.20;99.90;;;;;;5059348;28;20037;-46
2021/08/25 05:45:57;;;;;;;9.27;5.85;;;12.20;99.90;;;;;;5070063;28;20252;-46
2021/08/25 05:48:23;;;;;;;12.27;5.30;;;12.30;99.90;;;;;;5079019;28;20166;-46
2021/08/25 05:50:49;;;;;;;12.40;7.28;;;12.40;99.90;;;;;;5079607;28;20384;-47
2021/08/25 05:53:14;;;;;;;11.70;6.53;;;12.50;99.90;;;;;;5059402;28;20036;-46
2021/08/25 05:55:40;;;;;;;12.02;6.57;;;12.60;99.90;;;;;;5059340;28;20136;-46
2021/08/25 05:58:06;;;;;;;14.95;6.40;;;12.60;99.90;;;;;;5056100;28;20049;-46
2021/08/25 06:00:31;;;;;;;10.25;6.45;;;12.70;99.90;;;;;;5055952;28;20029;-46
2021/08/25 06:02:57;;;;;;;9.20;5.78;;;12.70;99.90;;;;;;5065891;28;20486;-47
2021/08/25 06:05:23;;;;;;;12.57;6.15;;;12.80;99.90;;;;;;5058127;28;20048;-46
2021/08/25 06:07:48;;;;;;;10.02;5.78;;;12.80;99.90;;;;;;5069070;28;20110;-46
2021/08/25 06:10:14;;;;;;;10.50;5.53;;;12.90;99.90;;;;;;5084230;28;20055;-46
2021/08/25 06:12:39;;;;;;;10.98;6.55;;;12.90;99.90;;;;;;5065699;28;20055;-46
2021/08/25 06:15:06;;;;;;;11.68;6.75;;;13.00;99.90;;;;;;5056028;28;20040;-46
2021/08/25 06:17:31;;;;;;;10.93;5.65;;;13.10;99.90;;;;;;5052895;28;20494;-46
2021/08/25 06:19:57;;;;;;;10.02;5.70;;;13.10;99.90;;;;;;5058429;28;20106;-46
2021/08/25 06:22:22;;;;;;;9.38;5.68;;;13.30;99.90;;;;;;5054230;28;20386;-48
2021/08/25 06:24:48;;;;;;;9.23;4.90;;;13.40;99.90;;;;;;5064453;28;20095;-46
2021/08/25 06:27:13;;;;;;;9.38;5.45;;;13.50;99.90;;;;;;5055397;28;20504;-46
2021/08/25 06:29:39;;;;;;;9.20;5.72;;;13.50;99.90;;;;;;5054429;28;20021;-49
2021/08/25 06:32:07;;;;;;;12.07;5.60;;;13.60;99.90;;;;;;5066729;28;20540;-46
2021/08/25 06:34:32;;;;;;;9.63;5.13;;;13.70;99.90;;;;;;5063763;28;20576;-47
2021/08/25 06:36:58;;;;;;;8.35;5.47;;;13.80;99.90;;;;;;5057872;28;20028;-47
2021/08/25 06:39:23;;;;;;;11.98;6.38;;;13.90;99.90;;;;;;5055871;28;20033;-48
2021/08/25 06:41:49;;;;;;;11.05;5.57;;;14.00;99.90;;;;;;5065817;28;20029;-46
2021/08/25 06:44:14;;;;;;;10.32;5.07;;;14.00;99.90;;;;;;5054941;28;20029;-46
2021/08/25 06:46:40;;;;;;;7.15;4.45;;;14.10;99.90;;;;;;5055461;28;20025;-47
2021/08/25 06:49:05;;;;;;;9.85;5.45;;;14.20;99.90;;;;;;5056054;28;20078;-49
2021/08/25 06:51:31;;;;;;;11.68;4.95;;;14.30;99.90;;;;;;5053303;28;20036;-47
2021/08/25 06:53:56;;;;;;;11.00;5.72;;;14.30;99.90;;;;;;5055257;28;20066;-47
2021/08/25 06:56:22;;;;;;;11.00;5.38;;;14.50;99.90;;;;;;5058177;28;20128;-46
2021/08/25 06:58:47;;;;;;;10.40;5.45;;;14.60;99.90;;;;;;5057660;28;20108;-47
2021/08/25 07:01:13;;;;;;;8.27;5.15;;;14.70;99.90;;;;;;5064351;28;20342;-46
2021/08/25 07:03:38;;;;;;;8.95;5.28;;;14.80;99.90;;;;;;5060889;28;20021;-46
2021/08/25 07:06:04;;;;;;;11.43;5.60;;;14.90;99.90;;;;;;5071768;28;20347;-48
2021/08/25 07:08:29;;;;;;;10.18;5.85;;;15.00;99.90;;;;;;5060368;28;20032;-46
2021/08/25 07:10:55;;;;;;;9.88;5.53;;;15.10;99.90;;;;;;5059490;28;20029;-46
2021/08/25 07:13:20;;;;;;;14.02;5.60;;;15.10;99.90;;;;;;5058461;28;20045;-46
2021/08/25 07:15:46;;;;;;;9.82;6.05;;;15.20;99.90;;;;;;5061629;28;20135;-48
2021/08/25 07:18:11;;;;;;;11.63;6.32;;;15.20;99.90;;;;;;5059790;28;20094;-46
2021/08/25 07:20:37;;;;;;;9.75;5.75;;;15.20;99.90;;;;;;5061855;28;20029;-48
2021/08/25 07:23:02;;;;;;;10.02;5.55;;;15.30;99.90;;;;;;5059934;28;20031;-46
2021/08/25 07:25:28;;;;;;;8.52;5.50;;;15.40;99.90;;;;;;5064010;28;20620;-46
2021/08/25 07:27:53;;;;;;;15.95;5.45;;;15.40;99.90;;;;;;5059392;28;20029;-47
2021/08/25 07:30:19;;;;;;;13.27;6.22;;;15.50;99.90;;;;;;5063201;28;20036;-46
2021/08/25 07:32:44;;;;;;;8.93;6.13;;;15.50;99.90;;;;;;5066272;28;20112;-46
2021/08/25 07:35:11;;;;;;;8.80;5.93;;;15.50;99.90;;;;;;5060513;28;20085;-47
2021/08/25 07:37:38;;;;;;;10.23;6.22;;;15.60;99.90;;;;;;5063454;28;20366;-48
2021/08/25 07:40:07;;;;;;;10.75;5.82;;;15.70;99.90;;;;;;5061907;28;20071;-50
2021/08/25 07:42:33;;;;;;;12.18;6.28;;;15.90;99.90;;;;;;5056897;28;20020;-46
2021/08/25 07:44:59;;;;;;;17.23;6.20;;;16.00;99.90;;;;;;5061688;28;20044;-47
2021/08/25 07:47:24;;;;;;;8.95;5.35;;;16.10;99.90;;;;;;5059253;28;20033;-46
2021/08/25 07:49:50;;;;;;;11.52;6.05;;;16.30;99.90;;;;;;5057619;28;20471;-46
2021/08/25 07:52:16;;;;;;;8.68;5.75;;;16.40;99.90;;;;;;5059890;28;20020;-47
2021/08/25 07:54:41;;;;;;;11.32;5.70;;;16.60;99.90;;;;;;5061995;28;20028;-46
2021/08/25 07:57:07;;;;;;;15.18;5.82;;;17.00;99.90;;;;;;5057394;28;20021;-46
2021/08/25 07:59:32;;;;;;;13.07;6.63;;;17.60;99.90;;;;;;5055725;28;20025;-46
2021/08/25 08:01:58;;;;;;;9.60;4.97;;;18.50;99.90;;;;;;5062301;28;20033;-46
2021/08/25 08:04:24;;;;;;;8.68;5.18;;;18.90;99.90;;;;;;5061164;28;20025;-48
2021/08/25 08:06:49;;;;;;;8.30;4.90;;;18.80;99.90;;;;;;5065541;28;20454;-47
2021/08/25 08:09:15;;;;;;;11.02;4.85;;;18.90;99.90;;;;;;5068037;28;20033;-46
2021/08/25 08:11:41;;;;;;;8.65;4.85;;;19.00;99.90;;;;;;5062349;28;20036;-47
2021/08/25 08:14:07;;;;;;;8.77;5.28;;;19.10;99.90;;;;;;5069335;28;20086;-47
2021/08/25 08:16:35;;;;;;;8.10;4.95;;;19.40;99.90;;;;;;5066073;28;20020;-46
2021/08/25 08:19:16;;;;;;;7.70;5.28;;;19.60;99.90;;;;;;5068649;28;20024;-48
2021/08/25 08:21:42;;;;;;;8.80;4.85;;;19.60;99.90;;;;;;5065425;28;20032;-46
2021/08/25 08:24:08;;;;;;;9.52;5.32;;;19.90;99.90;;;;;;5065814;28;20021;-46
2021/08/25 08:26:33;;;;;;;8.68;5.43;;;20.10;99.90;;;;;;5058829;28;20033;-46
2021/08/25 08:28:59;;;;;;;6.75;4.88;;;20.30;99.80;;;;;;5060651;28;20081;-46
2021/08/25 08:31:26;;;;;;;9.60;5.03;;;20.60;98.80;;;;;;5064053;28;20064;-47
2021/08/25 08:33:51;;;;;;;7.85;4.25;;;20.70;98.20;;;;;;5069561;28;20078;-47
2021/08/25 08:36:17;;;;;;;6.10;4.30;;;21.40;96.90;;;;;;5052920;28;20372;-46
2021/08/25 08:38:42;;;;;;;7.47;4.93;;;21.90;96.50;;;;;;5062182;28;20115;-47
2021/08/25 08:41:08;;;;;;;7.25;4.40;;;21.90;95.90;;;;;;5066370;28;20024;-47
2021/08/25 08:43:34;;;;;;;7.95;5.10;;;22.00;95.20;;;;;;5074563;28;20028;-47
2021/08/25 08:46:00;;;;;;;6.85;4.30;;;21.70;94.40;;;;;;5081322;28;20389;-46
2021/08/25 08:48:27;;;;;;;7.57;4.60;;;21.70;94.60;;;;;;5074686;28;20056;-46
2021/08/25 08:50:53;;;;;;;8.07;3.92;;;21.60;94.90;;;;;;5057711;28;20150;-46
2021/08/25 08:53:19;;;;;;;9.40;4.80;;;21.60;94.10;;;;;;5056492;28;20043;-47
2021/08/25 08:55:45;;;;;;;10.88;4.22;;;21.50;95.00;;;;;;5076536;28;20481;-46
2021/08/25 08:58:11;;;;;;;7.20;4.80;;;21.60;94.50;;;;;;5067713;28;20464;-47
2021/08/25 09:00:38;;;;;;;7.55;4.30;;;21.40;93.40;;;;;;5065546;28;20033;-46
2021/08/25 09:03:23;;;;;;;8.10;3.88;;;21.70;93.30;;;;;;5081041;28;20043;-46
2021/08/25 09:05:57;;;;;;;7.97;4.20;;;21.80;92.40;;;;;;5079835;28;20036;-46
2021/08/25 09:08:25;;;;;;;7.68;4.03;;;21.60;92.00;;;;;;5061771;28;20386;-48
2021/08/25 09:11:04;;;;;;;4.25;3.35;;;22.20;91.70;;;;;;5058292;28;20024;-47
2021/08/25 09:13:48;;;;;;;5.93;4.00;;;22.80;89.80;;;;;;5058164;28;20064;-47
2021/08/25 09:16:34;;;;;;;7.93;3.95;;;22.70;90.10;;;;;;5072254;28;20032;-46
2021/08/25 09:19:17;;;;;;;6.20;4.03;;;22.90;90.10;;;;;;5060815;28;20020;-46
2021/08/25 09:21:44;;;;;;;6.85;4.28;;;22.90;89.80;;;;;;5058949;28;20021;-46
2021/08/25 09:24:11;;;;;;;8.13;3.88;;;22.50;88.40;;;;;;5049548;28;20021;-47
2021/08/25 09:26:58;;;;;;;7.53;4.05;;;22.50;91.50;;;;;;5049080;28;20121;-49
2021/08/25 09:29:23;;;;;;;6.57;3.25;;;22.50;89.30;;;;;;5059569;28;20032;-47
2021/08/25 09:31:50;;;;;;;7.38;4.20;;;22.30;90.30;;;;;;5069103;28;20312;-46
2021/08/25 09:34:30;;;;;;;5.25;3.80;;;22.20;90.40;;;;;;5056865;28;20032;-46
2021/08/25 09:37:12;;;;;;;5.97;3.13;;;22.50;90.70;;;;;;5068637;28;20128;-48
2021/08/25 09:39:42;;;;;;;5.38;3.60;;;23.00;87.80;;;;;;5054961;28;20494;-47
2021/08/25 09:42:09;;;;;;;6.85;4.00;;;23.20;87.20;;;;;;5049045;28;20132;-47
2021/08/25 09:44:34;;;;;;;5.22;3.50;;;23.90;84.40;;;;;;5058705;28;20461;-47
2021/08/25 09:47:00;;;;;;;5.95;3.35;;;24.40;83.20;;;;;;5058867;28;20028;-47
2021/08/25 09:49:25;;;;;;;6.90;3.67;;;25.60;82.00;;;;;;5056012;28;20032;-49
2021/08/25 09:51:54;;;;;;;4.88;3.53;;;27.30;74.00;;;;;;5056650;28;20512;-47
2021/08/25 09:54:20;;;;;;;5.93;3.38;;;28.20;71.20;;;;;;5060474;28;20028;-48
2021/08/25 09:56:45;;;;;;;5.65;3.63;;;28.00;68.10;;;;;;5057175;28;20028;-48
2021/08/25 09:59:13;;;;;;;6.50;3.45;;;27.90;66.30;;;;;;5056044;28;20028;-47
2021/08/25 10:01:40;;;;;;;6.53;3.70;;;27.60;67.50;;;;;;5065609;28;20034;-47
2021/08/25 10:04:08;;;;;;;3.72;3.15;;;27.00;66.10;;;;;;5067208;28;20486;-47
2021/08/25 10:06:37;;;;;;;6.15;3.53;;;26.70;66.50;;;;;;5057942;28;20038;-48
2021/08/25 10:09:05;;;;;;;6.78;3.78;;;26.60;68.20;;;;;;5055831;28;20033;-47
2021/08/25 10:11:31;;;;;;;5.25;3.22;;;26.50;68.50;;;;;;5057353;28;20083;-47
2021/08/25 10:13:58;;;;;;;5.53;3.65;;;26.40;70.20;;;;;;5055245;28;20611;-47
2021/08/25 10:16:45;;;;;;;6.47;3.97;;;27.20;67.10;;;;;;5071855;28;20493;-48
2021/08/25 10:19:28;;;;;;;4.63;3.30;;;28.40;61.90;;;;;;5056450;28;20021;-47
2021/08/25 10:21:55;;;;;;;6.50;3.42;;;29.30;59.80;;;;;;5054109;28;20032;-48
2021/08/25 10:24:21;;;;;;;7.68;3.58;;;29.90;61.20;;;;;;5056767;28;20021;-47
2021/08/25 10:26:58;;;;;;;6.10;3.58;;;30.40;59.90;;;;;;5058207;28;20065;-48
2021/08/25 10:29:29;;;;;;;4.40;3.15;;;29.90;58.10;;;;;;5054407;28;20025;-47
2021/08/25 10:31:55;;;;;;;4.60;3.20;;;29.40;58.90;;;;;;5063415;28;20043;-48
2021/08/25 10:34:27;;;;;;;4.95;3.00;;;29.30;55.90;;;;;;5059120;28;20012;-48
2021/08/25 10:37:14;;;;;;;6.35;3.30;;;29.00;56.40;;;;;;5057509;28;20116;-47
2021/08/25 10:39:41;;;;;;;5.25;3.10;;;28.80;55.20;;;;;;5056240;28;20114;-50
2021/08/25 10:42:07;;;;;;;5.47;3.40;;;28.80;56.80;;;;;;5053081;28;20496;-47
2021/08/25 10:44:38;;;;;;;5.43;3.88;;;28.50;57.40;;;;;;5055006;28;20100;-47
2021/08/25 10:47:12;;;;;;;7.13;3.40;;;28.30;56.80;;;;;;5057969;28;20029;-48
2021/08/25 10:49:46;;;;;;;5.25;3.85;;;27.30;57.90;;;;;;5057300;28;20030;-49
2021/08/25 10:52:14;;;;;;;4.45;3.50;;;27.00;58.80;;;;;;5062902;28;20046;-48
2021/08/25 10:54:50;;;;;;;5.78;3.80;;;26.70;59.40;;;;;;5063982;28;20098;-48
2021/08/25 10:57:24;;;;;;;6.43;3.58;;;27.20;57.90;;;;;;5056211;28;20021;-48
2021/08/25 10:59:50;;;;;;;4.75;3.55;;;28.50;57.00;;;;;;5052263;28;20024;-48
2021/08/25 11:02:16;;;;;;;6.53;3.83;;;29.80;54.00;;;;;;5060112;28;20067;-47
2021/08/25 11:04:42;;;;;;;6.50;3.53;;;30.40;51.70;;;;;;5054862;28;20044;-48
2021/08/25 11:07:13;;;;;;;5.15;3.45;;;30.90;53.20;;;;;;5055823;28;20036;-48
2021/08/25 11:09:50;;;;;;;4.93;3.33;;;31.50;51.30;;;;;;5056654;28;20382;-49
2021/08/25 11:12:24;;;;;;;4.47;3.50;;;31.90;50.10;;;;;;5057048;28;20029;-50
2021/08/25 11:14:52;;;;;;;7.63;3.38;;;31.80;50.70;;;;;;5057201;28;20060;-48
2021/08/25 11:17:28;;;;;;;5.40;3.70;;;32.80;50.60;;;;;;5060338;28;20489;-48
2021/08/25 11:20:00;;;;;;;8.73;6.65;;;32.20;49.90;;;;;;5065407;28;20025;-50
2021/08/25 11:22:31;;;;;;;7.85;4.15;;;32.20;49.70;;;;;;5054254;28;20032;-50
2021/08/25 11:25:05;;;;;;;5.35;3.08;;;31.60;48.60;;;;;;5057308;28;20044;-48
2021/08/25 11:27:33;;;;;;;8.25;4.15;;;30.90;49.60;;;;;;5057834;28;20100;-49
2021/08/25 11:30:14;;;;;;;5.63;3.92;;;31.00;49.90;;;;;;5055211;28;20025;-47
2021/08/25 11:32:54;;;;;;;4.97;3.38;;;30.90;52.70;;;;;;5060368;28;20490;-47
2021/08/25 11:35:28;;;;;;;5.30;3.38;;;31.50;52.60;;;;;;5059803;28;20117;-50
2021/08/25 11:37:56;;;;;;;6.70;3.80;;;30.90;51.90;;;;;;5055452;28;20386;-47
2021/08/25 11:40:23;;;;;;;4.85;3.55;;;31.40;51.10;;;;;;5057983;28;20027;-48
2021/08/25 11:42:49;;;;;;;5.40;3.40;;;31.60;49.90;;;;;;5061551;28;20020;-50
2021/08/25 11:45:22;;;;;;;5.50;3.85;;;31.10;52.10;;;;;;5063293;28;20471;-48
2021/08/25 11:47:48;;;;;;;5.40;3.60;;;31.60;50.70;;;;;;5054204;28;20082;-49
2021/08/25 11:50:14;;;;;;;3.85;3.00;;;31.60;49.60;;;;;;5057283;28;20029;-49
2021/08/25 11:52:40;;;;;;;5.57;3.50;;;31.60;50.00;;;;;;5064605;28;20032;-49
2021/08/25 11:55:07;;;;;;;6.05;3.60;;;32.00;48.80;;;;;;5067484;28;20104;-50
2021/08/25 11:57:44;;;;;;;3.70;3.17;;;30.80;49.50;;;;;;5058575;28;20088;-49
2021/08/25 12:00:12;;;;;;;7.63;3.42;;;31.30;51.20;;;;;;5064781;28;20020;-49
2021/08/25 12:02:59;;;;;;;5.22;3.10;;;31.40;48.50;;;;;;5063980;28;20171;-51
2021/08/25 12:05:28;;;;;;;8.93;3.53;;;31.00;49.00;;;;;;5070281;28;20016;-50
2021/08/25 12:08:02;;;;;;;4.25;3.25;;;30.30;50.30;;;;;;5066075;28;20017;-48
2021/08/25 12:10:29;;;;;;;5.88;3.35;;;29.50;52.00;;;;;;5057297;28;20043;-48
2021/08/25 12:12:56;;;;;;;5.22;3.50;;;28.90;54.00;;;;;;5050312;28;20538;-49
2021/08/25 12:15:40;;;;;;;6.57;3.75;;;28.20;53.30;;;;;;5050417;28;20066;-48
2021/08/25 12:18:05;;;;;;;5.28;3.40;;;27.70;54.70;;;;;;5053109;28;20021;-48
2021/08/25 12:20:39;;;;;;;7.35;3.20;;;27.90;56.90;;;;;;5066158;28;20107;-48
2021/08/25 12:23:06;;;;;;;5.00;3.03;;;27.90;55.90;;;;;;5072747;28;20034;-50
2021/08/25 12:25:43;;;;;;;4.78;3.58;;;28.00;55.20;;;;;;5059065;28;20029;-48
2021/08/25 12:28:13;;;;;;;6.13;3.05;;;27.90;56.30;;;;;;5064354;28;20020;-51
2021/08/25 12:30:41;;;;;;;4.40;2.95;;;27.70;55.50;;;;;;5065166;28;20608;-48
2021/08/25 12:33:10;;;;;;;3.60;3.05;;;27.40;55.80;;;;;;5069135;28;20032;-50
2021/08/25 12:35:37;;;;;;;5.05;3.13;;;26.70;56.40;;;;;;5058542;28;20021;-48
2021/08/25 12:38:04;;;;;;;5.45;3.20;;;25.90;59.10;;;;;;5059601;28;20264;-48
2021/08/25 12:40:31;;;;;;;5.63;3.65;;;25.70;60.20;;;;;;5054963;28;20040;-48
2021/08/25 12:42:58;;;;;;;5.32;3.38;;;25.70;60.30;;;;;;5058553;28;20021;-48
2021/08/25 12:45:25;;;;;;;8.60;3.80;;;25.40;61.50;;;;;;5060297;28;20044;-48
2021/08/25 12:47:53;;;;;;;3.92;2.92;;;25.20;61.40;;;;;;5061768;28;20057;-47